Cabinhill, New York
Current Conditions -  °F | °C
As of 12:15 PM on Thursday 23 Oct 2014 (Local Time) from KMSV Reporting Station
Overcast Overcast  
Wind Chill: 40°   Ceiling: 4400
Heat Index: 46°   Visibility: 10mi
Dew Point: 45°   Wind: 15mph
Humidity: 93%   Direction: 340°NNW
Pressure: 29.79"   Gusts: 23mph
Location:  42.1741°N, 74.907°W
Report Text: KMSV 231615Z AUTO 34013G20KT 10SM FEW016 BKN044 OVC075 08/07 A2979 RMK AO1
Loading
Personal Weather Stations






























Interactive Weather Map
Tropical Storm Tracking
New forecast layout! Learn more

10-Day Weather Forecast

Advertisements
Track Severe Weather on mobile